Time;durP1;ratioP1;P1;durP2;ratioP2;P2;SDS_P1;SDS_P2;PMS_P1;PMS_P2;Temp;Humidity;BMP_temperature;BMP_pressure;BME280_temperature;BME280_humidity;BME280_pressure;Samples;Min_cycle;Max_cycle;Signal;HPM_P1;HPM_P2
2023/12/16 00:02:18;;;;;;;;;12.75;11.75;;;;;19.20;38.11;103732.41;5053179;28;45506;-76
2023/12/16 00:04:44;;;;;;;;;14.75;11.75;;;;;19.22;38.07;103744.16;5052002;28;45405;-78
2023/12/16 00:07:09;;;;;;;;;14.75;12.00;;;;;19.19;38.27;103749.69;5053186;28;45319;-79
2023/12/16 00:09:34;;;;;;;;;12.75;11.25;;;;;19.09;38.21;103738.22;5054592;28;45314;-75
2023/12/16 00:12:00;;;;;;;;;13.25;13.25;;;;;19.17;38.24;103741.56;5055562;28;55311;-78
2023/12/16 00:14:25;;;;;;;;;15.00;14.50;;;;;19.09;37.98;103746.38;5056905;28;45893;-77
2023/12/16 00:16:51;;;;;;;;;16.00;11.25;;;;;18.97;37.84;103749.50;5054017;28;46254;-77
2023/12/16 00:19:16;;;;;;;;;12.75;12.00;;;;;18.98;37.90;103747.66;5060331;28;53349;-78
2023/12/16 00:21:41;;;;;;;;;13.50;11.25;;;;;18.97;38.33;103746.78;5058231;28;49519;-76
2023/12/16 00:24:06;;;;;;;;;12.25;11.75;;;;;18.96;38.00;103723.28;5057070;28;55998;-76
2023/12/16 00:26:33;;;;;;;;;10.00;10.00;;;;;19.02;37.87;103750.25;5055067;28;47308;-78
2023/12/16 00:28:58;;;;;;;;;16.25;11.00;;;;;19.03;37.99;103733.00;5056540;28;45261;-78
2023/12/16 05:32:57;;;;;;;;;8.50;8.50;;;;;18.73;36.89;103736.72;5072023;27;45535;-76
2023/12/16 05:35:23;;;;;;;;;7.25;6.50;;;;;18.78;36.94;103742.91;5054932;28;52426;-77
2023/12/16 05:37:48;;;;;;;;;9.00;7.50;;;;;18.78;36.66;103730.22;5057055;28;45173;-77
2023/12/16 05:40:14;;;;;;;;;6.25;6.25;;;;;18.74;36.97;103738.50;5057616;28;45477;-78
2023/12/16 05:42:40;;;;;;;;;8.75;7.50;;;;;18.61;37.49;103740.75;5057152;28;46220;-79
2023/12/16 05:45:06;;;;;;;;;9.75;8.75;;;;;18.38;37.87;103722.41;5056114;28;45395;-76
2023/12/16 05:47:31;;;;;;;;;10.25;9.75;;;;;18.51;37.73;103742.81;5055326;28;45546;-76
2023/12/16 05:49:56;;;;;;;;;7.25;7.25;;;;;18.43;37.83;103744.91;5055212;28;52094;-76
2023/12/16 05:52:22;;;;;;;;;6.00;5.25;;;;;18.44;38.01;103751.22;5054334;28;62735;-77
2023/12/16 05:54:47;;;;;;;;;6.25;6.25;;;;;18.53;37.85;103750.94;5055270;28;53094;-79
2023/12/16 05:57:12;;;;;;;;;5.00;5.00;;;;;18.53;37.92;103746.41;5055032;28;45485;-77
2023/12/16 05:59:38;;;;;;;;;9.00;8.00;;;;;18.42;38.24;103740.41;5055147;28;45422;-77
2023/12/16 06:02:03;;;;;;;;;7.00;7.00;;;;;18.25;38.32;103748.19;5052901;28;65453;-76
2023/12/16 06:04:29;;;;;;;;;8.50;6.75;;;;;18.25;38.55;103750.91;5055142;28;45403;-76
2023/12/16 06:06:55;;;;;;;;;7.50;5.50;;;;;18.20;38.52;103739.28;5054959;28;45398;-77
2023/12/16 06:09:20;;;;;;;;;7.50;6.00;;;;;18.31;38.97;103756.13;5054883;28;45385;-76
2023/12/16 06:11:45;;;;;;;;;8.75;6.75;;;;;18.20;39.14;103744.72;5054407;28;57618;-79
2023/12/16 06:14:11;;;;;;;;;9.50;6.50;;;;;18.13;38.72;103748.53;5055358;28;45458;-79
2023/12/16 06:16:36;;;;;;;;;5.75;5.75;;;;;18.10;39.29;103746.81;5055320;28;45328;-76
2023/12/16 06:19:02;;;;;;;;;9.25;7.50;;;;;18.15;38.84;103742.13;5055729;28;45318;-79
2023/12/16 06:21:29;;;;;;;;;9.75;7.50;;;;;17.85;39.17;103721.34;5055874;28;45404;-80
2023/12/16 06:23:55;;;;;;;;;5.50;4.25;;;;;17.89;38.99;103732.97;5056486;28;45236;-79
2023/12/16 06:26:20;;;;;;;;;10.50;8.00;;;;;17.81;39.29;103749.47;5054776;28;45367;-77
2023/12/16 06:28:46;;;;;;;;;7.25;7.25;;;;;17.96;39.17;103750.84;5054984;28;45302;-75
2023/12/16 06:31:17;;;;;;;;;8.00;6.75;;;;;17.94;39.52;103759.06;5059909;28;46197;-77
2023/12/16 06:33:43;;;;;;;;;9.00;7.50;;;;;18.02;39.47;103762.44;5054072;28;45545;-77
2023/12/16 06:36:09;;;;;;;;;5.25;5.25;;;;;17.99;39.12;103761.63;5054272;28;45376;-78
2023/12/16 06:38:34;;;;;;;;;7.75;7.75;;;;;18.01;39.29;103774.25;5055072;28;45583;-79
2023/12/16 06:41:01;;;;;;;;;4.00;4.00;;;;;18.08;39.30;103759.53;5020352;28;46326;-76
2023/12/16 06:43:26;;;;;;;;;6.00;6.00;;;;;18.03;39.24;103764.19;5036712;28;45560;-80
2023/12/16 06:45:51;;;;;;;;;5.00;5.00;;;;;17.96;38.89;103740.00;5054780;28;45324;-82
2023/12/16 06:48:18;;;;;;;;;9.50;8.25;;;;;18.15;39.32;103771.09;5036687;28;45553;-76
2023/12/16 06:50:43;;;;;;;;;9.00;7.75;;;;;18.04;38.98;103755.13;5054722;28;45614;-79
2023/12/16 06:53:09;;;;;;;;;10.00;9.00;;;;;18.12;39.20;103766.66;5054571;28;45333;-79
2023/12/16 06:55:34;;;;;;;;;10.75;9.00;;;;;18.21;39.14;103781.78;5054532;28;45419;-79
2023/12/16 06:58:02;;;;;;;;;12.25;8.00;;;;;18.12;39.58;103760.31;5062301;28;53490;-80
2023/12/16 07:00:27;;;;;;;;;6.50;6.50;;;;;18.13;39.37;103759.41;5038979;28;65522;-83
2023/12/16 07:02:52;;;;;;;;;7.25;5.50;;;;;18.12;39.68;103763.03;5053990;28;54826;-78
2023/12/16 07:05:17;;;;;;;;;9.00;9.00;;;;;18.16;39.41;103770.19;5054721;28;45458;-81
2023/12/16 07:07:43;;;;;;;;;11.00;9.75;;;;;18.11;39.30;103775.75;5054308;28;45497;-78
2023/12/16 07:10:09;;;;;;;;;8.25;8.00;;;;;18.13;38.44;103792.88;5053968;28;46923;-75
2023/12/16 07:12:34;;;;;;;;;10.00;10.00;;;;;17.96;38.73;103773.47;5035571;28;45407;-77
2023/12/16 07:15:00;;;;;;;;;11.25;8.00;;;;;18.01;38.39;103801.38;5053598;28;45250;-76
2023/12/16 07:17:25;;;;;;;;;8.50;8.50;;;;;17.94;38.93;103788.94;5053145;28;53899;-75
2023/12/16 07:19:50;;;;;;;;;8.00;8.00;;;;;17.90;39.19;103797.19;5057116;28;45252;-77
2023/12/16 07:22:16;;;;;;;;;7.50;6.75;;;;;17.81;38.97;103786.59;5039431;28;45819;-76
2023/12/16 07:24:42;;;;;;;;;9.50;9.50;;;;;17.86;39.25;103787.38;5057655;28;45379;-74
2023/12/16 07:27:07;;;;;;;;;7.75;7.75;;;;;17.72;38.97;103775.06;5057603;28;45583;-75
2023/12/16 07:29:34;;;;;;;;;10.00;10.00;;;;;17.85;39.20;103785.56;5057698;28;46486;-78
2023/12/16 07:32:00;;;;;;;;;10.00;10.00;;;;;17.96;39.53;103797.00;5064038;28;45423;-77
2023/12/16 07:34:25;;;;;;;;;12.00;10.75;;;;;17.75;39.10;103760.53;5057460;28;45315;-76
2023/12/16 07:36:50;;;;;;;;;12.25;10.50;;;;;17.90;39.25;103779.06;5057453;28;45505;-76
2023/12/16 07:39:16;;;;;;;;;11.75;10.50;;;;;17.94;39.24;103798.91;5045480;28;46002;-77
2023/12/16 07:41:41;;;;;;;;;10.25;8.00;;;;;17.89;39.22;103812.56;5047596;28;45379;-77
2023/12/16 07:44:06;;;;;;;;;11.00;10.00;;;;;17.84;39.41;103808.22;5072629;28;45280;-78
2023/12/16 07:46:32;;;;;;;;;9.75;9.75;;;;;17.91;39.63;103807.09;5077716;28;45537;-77
2023/12/16 07:48:57;;;;;;;;;16.50;11.00;;;;;17.88;39.80;103837.03;5058750;28;52625;-77
2023/12/16 07:51:25;;;;;;;;;15.75;9.00;;;;;17.89;39.94;103839.72;5073815;28;45323;-77
2023/12/16 07:53:51;;;;;;;;;10.25;10.25;;;;;17.89;40.04;103822.53;5077143;28;45319;-76
2023/12/16 07:56:27;;;;;;;;;11.75;10.75;;;;;17.85;40.03;103813.63;5077408;28;45435;-77
2023/12/16 07:58:53;;;;;;;;;11.25;9.25;;;;;17.85;40.08;103843.47;5056821;28;45712;-77
2023/12/16 08:01:19;;;;;;;;;9.00;7.75;;;;;17.85;40.43;103837.16;5067704;28;45552;-78
2023/12/16 08:03:46;;;;;;;;;14.50;11.75;;;;;17.94;40.12;103842.31;5077110;28;45443;-77
2023/12/16 08:06:14;;;;;;;;;12.25;10.00;;;;;17.94;40.41;103847.75;5077309;28;45460;-79
2023/12/16 08:08:41;;;;;;;;;14.75;12.00;;;;;17.85;40.29;103843.47;5077557;28;46561;-79
2023/12/16 08:11:07;;;;;;;;;13.75;12.00;;;;;17.82;40.54;103848.06;5075463;28;45544;-79
2023/12/16 08:13:32;;;;;;;;;12.00;9.75;;;;;17.82;39.92;103848.97;5070786;28;46144;-78
2023/12/16 08:15:58;;;;;;;;;17.00;10.75;;;;;17.82;40.22;103856.22;5067877;28;45874;-77
2023/12/16 08:18:23;;;;;;;;;12.00;12.00;;;;;17.70;40.35;103831.19;5074358;28;45511;-78
2023/12/16 08:20:49;;;;;;;;;9.25;9.25;;;;;17.76;40.19;103841.00;5077248;28;45343;-80
2023/12/16 08:23:15;;;;;;;;;11.25;10.00;;;;;17.82;40.04;103848.97;5076701;28;45489;-79
2023/12/16 08:25:41;;;;;;;;;11.50;11.50;;;;;17.74;40.33;103862.75;5076841;28;45396;-79
2023/12/16 08:28:06;;;;;;;;;10.00;10.00;;;;;17.58;40.30;103849.59;5076431;28;45813;-79
2023/12/16 08:30:32;;;;;;;;;10.50;9.75;;;;;17.74;40.12;103860.03;5072214;28;46611;-78
2023/12/16 08:32:57;;;;;;;;;11.50;10.50;;;;;17.67;40.16;103835.81;5073775;28;45379;-78
2023/12/16 08:35:22;;;;;;;;;12.00;10.25;;;;;17.72;39.97;103852.84;5076328;28;52727;-77
2023/12/16 08:37:47;;;;;;;;;16.25;13.75;;;;;17.74;40.16;103868.19;5076188;28;45521;-76
2023/12/16 08:40:13;;;;;;;;;14.75;10.50;;;;;17.73;39.92;103858.25;5076713;28;45512;-79
2023/12/16 08:42:43;;;;;;;;;11.25;11.25;;;;;17.64;39.85;103855.78;5076593;28;45509;-79
2023/12/16 08:45:10;;;;;;;;;17.25;15.50;;;;;17.81;39.66;103866.19;5076458;28;45328;-79
2023/12/16 08:47:35;;;;;;;;;14.50;11.75;;;;;17.89;39.81;103872.28;5076218;28;46176;-79
2023/12/16 08:50:00;;;;;;;;;11.75;11.75;;;;;17.89;39.69;103875.00;5076709;28;45465;-78
2023/12/16 08:52:27;;;;;;;;;16.75;14.25;;;;;18.05;39.38;103883.63;5076614;28;45409;-79
2023/12/16 08:54:52;;;;;;;;;12.25;11.50;;;;;18.05;39.36;103873.66;5068385;28;45404;-78
2023/12/16 08:57:17;;;;;;;;;19.75;15.50;;;;;18.04;39.82;103889.97;5074588;28;45708;-76
2023/12/16 08:59:43;;;;;;;;;14.75;12.50;;;;;18.08;39.70;103880.84;5055293;28;45463;-80
2023/12/16 09:02:08;;;;;;;;;17.25;15.00;;;;;18.10;39.60;103888.00;5058371;28;45355;-78
2023/12/16 09:04:34;;;;;;;;;17.00;13.75;;;;;18.01;39.49;103865.66;5076163;28;45349;-77
2023/12/16 09:07:02;;;;;;;;;12.50;12.00;;;;;18.12;39.15;103882.50;5075914;28;45326;-78
2023/12/16 09:09:28;;;;;;;;;12.25;9.75;;;;;18.11;39.85;103872.63;5076292;28;45357;-78
2023/12/16 09:11:53;;;;;;;;;17.00;16.00;;;;;18.01;38.96;103844.81;5073552;28;45769;-77
2023/12/16 09:14:20;;;;;;;;;10.50;9.75;;;;;18.17;39.04;103861.56;5054128;28;46252;-77
2023/12/16 09:16:45;;;;;;;;;12.50;12.25;;;;;18.33;39.09;103875.59;5075816;28;45349;-77
2023/12/16 09:19:11;;;;;;;;;13.00;13.00;;;;;18.33;39.10;103851.16;5075856;28;50487;-78
2023/12/16 09:21:37;;;;;;;;;10.00;10.00;;;;;18.35;38.53;103849.28;5075916;28;45390;-77
2023/12/16 09:24:05;;;;;;;;;13.25;12.00;;;;;18.38;38.58;103855.50;5075881;28;45268;-78
2023/12/16 09:26:30;;;;;;;;;11.75;11.75;;;;;18.42;38.40;103845.44;5076342;28;46017;-80
2023/12/16 09:28:55;;;;;;;;;14.75;13.50;;;;;18.44;38.21;103847.19;5076359;28;45292;-77
2023/12/16 09:31:21;;;;;;;;;17.00;16.00;;;;;18.53;37.93;103857.78;5069657;28;45500;-79
2023/12/16 09:33:46;;;;;;;;;17.00;12.75;;;;;18.37;38.16;103834.72;5076257;28;45342;-78
2023/12/16 09:36:13;;;;;;;;;13.25;13.25;;;;;18.50;38.30;103843.41;5075633;28;45576;-78
2023/12/16 09:38:39;;;;;;;;;14.75;14.00;;;;;18.35;37.98;103825.75;5075840;28;45378;-79
2023/12/16 09:41:05;;;;;;;;;16.50;14.00;;;;;18.60;38.02;103860.34;5075721;28;45870;-77
2023/12/16 09:43:37;;;;;;;;;19.00;15.75;;;;;18.71;37.96;103875.41;5076025;28;45492;-79
2023/12/16 09:46:02;;;;;;;;;14.25;14.25;;;;;18.73;38.07;103861.75;5075537;28;45323;-79
2023/12/16 09:48:29;;;;;;;;;12.75;12.75;;;;;18.83;37.67;103871.41;5076294;28;45410;-78
2023/12/16 09:50:55;;;;;;;;;16.00;13.00;;;;;18.80;37.59;103877.81;5076204;28;45378;-78
2023/12/16 09:53:21;;;;;;;;;17.50;13.25;;;;;18.73;37.07;103854.50;5075995;28;45292;-79
2023/12/16 09:55:46;;;;;;;;;17.00;14.00;;;;;18.76;36.97;103861.66;5057801;28;47346;-78
2023/12/16 09:58:15;;;;;;;;;14.25;14.25;;;;;18.93;37.19;103893.75;5049521;28;45381;-78
2023/12/16 10:00:46;;;;;;;;;14.50;13.00;;;;;18.96;37.03;103888.25;5061109;28;45491;-77
2023/12/16 10:03:14;;;;;;;;;13.50;12.75;;;;;19.02;36.68;103894.38;5075976;28;45448;-78
2023/12/16 10:05:42;;;;;;;;;16.00;16.00;;;;;18.93;36.24;103893.75;5075354;28;45342;-78
2023/12/16 10:08:08;;;;;;;;;14.00;12.50;;;;;18.96;35.90;103889.13;5072436;28;45576;-76
2023/12/16 10:10:34;;;;;;;;;13.00;13.00;;;;;18.80;35.75;103868.78;5077252;28;45448;-78
2023/12/16 10:13:03;;;;;;;;;12.50;12.50;;;;;18.80;35.87;103885.97;5058229;28;47100;-79
2023/12/16 10:15:33;;;;;;;;;10.00;10.00;;;;;18.93;35.60;103877.44;5075476;28;45720;-77
2023/12/16 10:18:03;;;;;;;;;15.50;12.25;;;;;18.77;35.60;103858.00;5075323;28;45417;-78
2023/12/16 10:20:29;;;;;;;;;13.00;10.50;;;;;18.94;36.20;103880.13;5075427;28;45227;-80
2023/12/16 10:22:55;;;;;;;;;14.25;13.00;;;;;19.06;35.67;103884.28;5075108;28;45538;-77
2023/12/16 10:25:21;;;;;;;;;16.25;16.00;;;;;19.04;35.74;103891.63;5075261;28;45351;-78
2023/12/16 10:27:47;;;;;;;;;11.00;11.00;;;;;19.06;35.66;103885.16;5064048;28;45355;-80
2023/12/16 10:30:12;;;;;;;;;10.00;10.00;;;;;19.05;35.43;103869.81;5056262;28;46044;-77
2023/12/16 10:32:39;;;;;;;;;13.50;10.00;;;;;19.13;35.02;103875.00;5069299;28;45481;-76
2023/12/16 10:35:05;;;;;;;;;10.00;10.00;;;;;19.02;35.36;103863.56;5075987;28;45634;-78
2023/12/16 10:37:32;;;;;;;;;12.25;10.50;;;;;18.96;35.19;103856.50;5076876;28;45331;-78
2023/12/16 10:39:57;;;;;;;;;12.75;11.50;;;;;19.18;35.04;103871.19;5063084;28;45453;-76
2023/12/16 10:42:23;;;;;;;;;13.50;12.00;;;;;19.23;35.02;103865.56;5063911;28;45811;-77
2023/12/16 10:44:49;;;;;;;;;18.25;14.25;;;;;19.20;35.10;103831.22;5062119;28;48695;-79
2023/12/16 10:47:19;;;;;;;;;17.75;16.00;;;;;19.41;35.21;103856.81;5075726;28;45352;-78
2023/12/16 10:49:45;;;;;;;;;15.75;14.00;;;;;19.35;34.77;103831.66;5063935;28;45460;-76
2023/12/16 10:52:12;;;;;;;;;13.25;11.50;;;;;19.46;35.16;103849.41;5075640;28;45469;-78
2023/12/16 10:54:42;;;;;;;;;15.25;15.00;;;;;19.54;34.81;103847.34;5075012;28;46235;-77
2023/12/16 10:57:20;;;;;;;;;12.50;12.50;;;;;19.65;34.39;103860.56;5076607;28;45524;-78
2023/12/16 10:59:58;;;;;;;;;15.00;13.00;;;;;19.57;34.26;103843.59;5046230;28;45489;-78
2023/12/16 11:02:26;;;;;;;;;11.75;11.00;;;;;19.51;34.20;103838.38;5080902;28;45209;-78
2023/12/16 11:05:00;;;;;;;;;7.50;5.50;;;;;19.55;33.69;103849.13;5078455;28;45449;-77
2023/12/16 11:07:28;;;;;;;;;8.25;8.00;;;;;19.37;34.10;103816.16;5078874;28;45398;-78
2023/12/16 11:09:55;;;;;;;;;12.50;8.00;;;;;19.49;33.67;103843.88;5074483;28;45391;-80
2023/12/16 11:12:21;;;;;;;;;10.25;6.75;;;;;19.57;33.65;103846.31;5072578;28;45411;-77
2023/12/16 11:14:47;;;;;;;;;8.75;7.75;;;;;19.55;33.97;103837.34;5074155;28;45413;-79
2023/12/16 11:17:23;;;;;;;;;6.75;6.75;;;;;19.48;33.77;103817.59;5077184;28;45304;-80
2023/12/16 11:19:58;;;;;;;;;7.00;7.00;;;;;19.63;33.69;103825.25;5074984;28;45370;-75
2023/12/16 11:22:24;;;;;;;;;9.00;6.75;;;;;19.60;34.48;103824.47;5075534;28;45609;-80
2023/12/16 11:24:52;;;;;;;;;9.00;8.00;;;;;19.78;33.41;103845.59;5076056;28;45722;-79
2023/12/16 11:27:19;;;;;;;;;9.50;6.00;;;;;19.82;33.96;103836.34;5076520;28;45342;-79
2023/12/16 11:29:47;;;;;;;;;7.00;7.00;;;;;19.74;33.59;103813.06;5077925;28;45353;-85
2023/12/16 11:32:12;;;;;;;;;6.75;5.00;;;;;19.76;33.86;103809.34;5070059;28;45480;-78
2023/12/16 11:34:42;;;;;;;;;3.75;3.75;;;;;19.87;34.06;103815.31;5056170;28;48365;-78
2023/12/16 11:37:07;;;;;;;;;6.25;6.25;;;;;20.12;33.56;103839.81;5074453;28;45498;-77
2023/12/16 11:39:48;;;;;;;;;6.25;6.25;;;;;20.09;32.88;103819.97;5074961;28;45431;-85
2023/12/16 11:42:48;;;;;;;;;7.25;5.50;;;;;20.03;33.50;103830.16;5075783;28;45416;-79
2023/12/16 11:45:36;;;;;;;;;4.75;4.75;;;;;20.12;33.64;103819.84;5055865;28;46674;-76
2023/12/16 11:48:01;;;;;;;;;3.75;3.75;;;;;20.14;33.29;103812.53;5078242;28;45355;-80
2023/12/16 11:50:27;;;;;;;;;6.00;5.25;;;;;20.09;33.22;103807.22;5078626;28;45354;-80
2023/12/16 11:52:52;;;;;;;;;7.25;5.50;;;;;20.16;33.37;103800.59;5074538;28;45339;-78
2023/12/16 11:55:18;;;;;;;;;4.00;4.00;;;;;20.24;33.55;103797.63;5074024;28;45480;-77
2023/12/16 11:57:47;;;;;;;;;7.50;5.75;;;;;20.33;33.38;103798.13;5065151;28;45493;-78
2023/12/16 12:00:13;;;;;;;;;6.00;4.00;;;;;20.36;33.09;103798.03;5056033;28;45482;-78
2023/12/16 12:02:39;;;;;;;;;4.50;4.00;;;;;20.30;33.46;103779.19;5056046;28;45593;-76
2023/12/16 12:05:11;;;;;;;;;4.75;4.00;;;;;20.46;32.91;103787.69;5078238;28;46315;-83
2023/12/16 12:07:36;;;;;;;;;5.75;4.50;;;;;20.32;33.47;103773.69;5067517;28;45460;-80
2023/12/16 12:10:02;;;;;;;;;6.50;5.00;;;;;20.40;33.48;103777.03;5060024;28;45308;-76
2023/12/16 12:12:27;;;;;;;;;3.00;3.00;;;;;20.47;33.80;103788.56;5059726;28;47230;-78
2023/12/16 12:14:53;;;;;;;;;5.25;4.00;;;;;20.31;33.08;103744.66;5077879;28;45342;-79
2023/12/16 12:17:18;;;;;;;;;3.25;3.25;;;;;20.52;33.13;103779.25;5061752;28;45321;-82
2023/12/16 12:19:44;;;;;;;;;3.00;3.00;;;;;20.60;33.89;103779.84;5077116;28;45327;-82
2023/12/16 12:22:11;;;;;;;;;4.50;3.25;;;;;20.65;33.33;103782.41;5062397;28;45501;-79
2023/12/16 12:24:36;;;;;;;;;3.00;3.00;;;;;20.49;33.08;103752.13;5078286;28;46071;-81
2023/12/16 12:27:01;;;;;;;;;5.50;4.75;;;;;20.67;33.18;103770.44;5078657;28;45344;-76
2023/12/16 12:29:53;;;;;;;;;4.00;3.50;;;;;20.73;33.06;103769.34;5077516;28;45500;-74
2023/12/16 12:32:19;;;;;;;;;9.00;5.00;;;;;20.63;32.83;103767.94;5070420;28;45330;-76
2023/12/16 12:34:45;;;;;;;;;8.00;4.00;;;;;20.59;32.85;103760.81;5076743;28;46196;-78
2023/12/16 12:37:11;;;;;;;;;15.75;9.50;;;;;20.58;33.12;103778.16;5077274;28;45762;-77
2023/12/16 12:39:36;;;;;;;;;4.50;3.00;;;;;20.46;32.52;103762.25;5072691;28;45514;-76
2023/12/16 12:42:04;;;;;;;;;5.50;4.50;;;;;20.60;33.30;103763.47;5077257;28;45315;-79
2023/12/16 12:44:30;;;;;;;;;4.25;4.25;;;;;20.72;33.06;103753.94;5077083;28;45367;-74
2023/12/16 12:46:56;;;;;;;;;8.75;5.75;;;;;20.70;33.21;103751.25;5077835;28;45364;-77
2023/12/16 12:49:32;;;;;;;;;4.50;4.50;;;;;20.72;33.62;103737.56;5058558;28;45365;-76
2023/12/16 12:51:57;;;;;;;;;4.50;3.50;;;;;20.77;33.02;103735.53;5077099;28;45335;-79
2023/12/16 12:54:22;;;;;;;;;5.00;5.00;;;;;20.78;32.96;103748.22;5075701;28;49388;-77
2023/12/16 12:56:51;;;;;;;;;4.25;4.25;;;;;20.67;32.59;103742.34;5076055;28;48191;-76
2023/12/16 12:59:16;;;;;;;;;4.50;4.50;;;;;20.55;32.80;103721.00;5058586;28;45379;-79
2023/12/16 13:01:44;;;;;;;;;7.25;5.00;;;;;20.69;33.35;103733.13;5067938;28;45319;-75
2023/12/16 13:04:09;;;;;;;;;5.25;4.00;;;;;20.72;33.35;103743.91;5076185;28;46315;-76
2023/12/16 13:06:34;;;;;;;;;7.00;5.25;;;;;20.71;33.33;103730.34;5076116;28;45299;-77
2023/12/16 13:09:00;;;;;;;;;4.00;4.00;;;;;20.84;33.17;103744.38;5077171;28;45347;-76
2023/12/16 13:11:25;;;;;;;;;4.25;4.00;;;;;20.80;33.08;103734.53;5076689;28;45508;-76
2023/12/16 13:13:50;;;;;;;;;5.25;4.00;;;;;20.88;32.88;103735.97;5061383;28;45560;-78
2023/12/16 13:16:16;;;;;;;;;6.00;5.25;;;;;20.91;32.45;103738.59;5054574;28;45235;-76
2023/12/16 13:18:42;;;;;;;;;5.50;5.00;;;;;20.91;32.76;103743.16;5040733;28;45477;-78
2023/12/16 13:21:08;;;;;;;;;4.50;4.50;;;;;20.87;32.87;103733.31;5036778;28;46516;-77
2023/12/16 13:23:34;;;;;;;;;3.00;3.00;;;;;20.90;33.08;103733.19;5055805;28;45481;-76
2023/12/16 13:25:59;;;;;;;;;4.00;4.00;;;;;20.98;33.10;103736.47;5050225;28;45351;-77
2023/12/16 13:28:24;;;;;;;;;5.75;5.50;;;;;20.70;32.81;103726.72;5036121;28;45868;-75
2023/12/16 13:30:54;;;;;;;;;8.00;4.00;;;;;20.71;33.12;103727.59;5053876;28;45391;-73
2023/12/16 13:33:19;;;;;;;;;5.50;4.00;;;;;20.69;33.20;103729.50;5060980;28;46025;-74
2023/12/16 13:35:47;;;;;;;;;6.00;4.00;;;;;20.68;33.06;103725.88;5023176;28;45437;-74
2023/12/16 13:38:13;;;;;;;;;8.75;5.25;;;;;20.82;33.45;103732.63;5053776;28;45294;-75
2023/12/16 13:40:38;;;;;;;;;5.25;4.00;;;;;20.48;33.10;103706.75;5055409;28;45518;-75
2023/12/16 13:43:03;;;;;;;;;5.25;4.00;;;;;20.64;33.47;103728.81;5051035;28;47223;-74
2023/12/16 13:45:29;;;;;;;;;4.75;4.50;;;;;20.66;33.29;103722.38;5054539;28;49281;-76
2023/12/16 13:47:55;;;;;;;;;5.00;5.00;;;;;20.74;33.09;103736.56;5054875;28;45648;-76
2023/12/16 13:53:42;;;;;;;;;4.75;4.00;;;;;20.75;33.60;103726.53;5051418;28;45628;-74
2023/12/16 13:56:08;;;;;;;;;7.25;4.50;;;;;20.55;33.86;103691.91;5053780;28;49665;-75
2023/12/16 13:58:33;;;;;;;;;5.50;3.00;;;;;20.69;33.74;103708.56;5055281;28;45526;-75
2023/12/16 14:00:58;;;;;;;;;7.50;5.25;;;;;20.79;33.59;103714.53;5054945;28;45533;-75
2023/12/16 14:03:24;;;;;;;;;4.00;4.00;;;;;20.76;33.41;103712.81;5054486;28;45951;-77
2023/12/16 14:05:49;;;;;;;;;3.00;3.00;;;;;20.76;33.21;103720.13;5055156;28;45446;-76
2023/12/16 14:08:15;;;;;;;;;3.50;3.00;;;;;20.81;33.48;103728.13;5054440;28;45426;-77
2023/12/16 14:10:40;;;;;;;;;8.00;5.00;;;;;20.65;33.10;103693.31;5050888;28;47038;-75
2023/12/16 14:13:05;;;;;;;;;3.75;3.75;;;;;20.76;33.27;103712.81;5052415;28;45501;-76
2023/12/16 14:15:31;;;;;;;;;4.75;3.50;;;;;20.82;33.19;103713.53;5053300;28;45406;-78
2023/12/16 14:17:56;;;;;;;;;3.50;3.50;;;;;20.96;33.01;103713.84;5058455;28;45421;-79
2023/12/16 14:20:22;;;;;;;;;6.50;4.00;;;;;20.97;32.47;103721.94;5052201;28;45571;-78
2023/12/16 14:22:49;;;;;;;;;6.25;3.75;;;;;21.15;32.42;103710.25;5036316;28;46955;-77
2023/12/16 14:25:15;;;;;;;;;5.75;4.00;;;;;21.39;32.36;103710.16;5053901;28;45355;-77
2023/12/16 14:27:40;;;;;;;;;6.00;4.50;;;;;21.50;32.21;103703.28;5033973;28;45543;-77
2023/12/16 14:30:08;;;;;;;;;7.00;5.00;;;;;21.70;32.44;103696.00;5054867;28;45585;-77
2023/12/16 14:32:33;;;;;;;;;7.00;4.00;;;;;22.04;30.93;103712.63;5046787;28;45462;-77
2023/12/16 14:34:59;;;;;;;;;4.25;3.50;;;;;22.29;30.96;103706.88;5011336;28;45389;-76
2023/12/16 14:37:25;;;;;;;;;7.25;4.00;;;;;22.34;31.09;103702.09;5043476;28;45556;-77
2023/12/16 14:39:50;;;;;;;;;2.00;2.00;;;;;22.45;31.05;103701.56;5046811;28;45406;-78
2023/12/16 14:42:16;;;;;;;;;5.25;5.00;;;;;22.57;30.70;103684.53;5043855;28;46186;-78
2023/12/16 14:44:41;;;;;;;;;3.50;2.00;;;;;22.47;30.26;103669.53;5051711;28;57259;-74
2023/12/16 14:47:06;;;;;;;;;3.25;3.25;;;;;22.53;30.57;103688.41;5040142;28;45926;-78
2023/12/16 14:49:32;;;;;;;;;6.75;4.00;;;;;22.41;30.28;103689.88;5037265;28;45543;-76
2023/12/16 14:51:58;;;;;;;;;7.50;3.75;;;;;22.24;30.67;103682.50;5052689;28;45369;-77
2023/12/16 14:54:23;;;;;;;;;4.75;3.25;;;;;22.25;31.59;103697.06;5040029;28;45427;-77
2023/12/16 14:56:49;;;;;;;;;3.75;3.75;;;;;22.18;31.48;103699.22;5050681;28;45438;-79
2023/12/16 14:59:14;;;;;;;;;5.25;4.00;;;;;22.16;31.80;103706.59;5051228;28;45466;-79
2023/12/16 15:01:40;;;;;;;;;3.75;2.00;;;;;22.09;31.23;103698.75;5040797;28;46099;-79
2023/12/16 15:04:05;;;;;;;;;4.75;3.00;;;;;21.89;31.72;103678.69;5017519;28;45640;-78
2023/12/16 15:06:31;;;;;;;;;6.00;4.25;;;;;21.93;31.74;103695.84;5042148;28;45462;-80
2023/12/16 15:08:56;;;;;;;;;2.75;2.75;;;;;21.93;31.82;103705.88;5056448;28;45564;-78
2023/12/16 15:11:21;;;;;;;;;3.50;3.50;;;;;21.63;32.04;103687.22;5036150;28;46599;-78
2023/12/16 15:13:48;;;;;;;;;1.75;0.00;;;;;21.72;31.81;103707.75;5048089;28;45418;-77
2023/12/16 15:16:14;;;;;;;;;3.75;3.75;;;;;21.53;32.43;103689.47;5041585;28;45415;-78
2023/12/16 15:18:40;;;;;;;;;3.00;3.00;;;;;21.44;32.70;103689.88;5053963;28;45634;-78
2023/12/16 15:21:06;;;;;;;;;3.75;3.75;;;;;21.34;32.45;103676.75;5041715;28;46063;-79
2023/12/16 15:23:31;;;;;;;;;3.00;3.00;;;;;21.29;32.43;103674.19;5043665;28;45466;-79
2023/12/16 15:25:57;;;;;;;;;4.75;3.50;;;;;21.11;32.36;103664.06;5033196;28;45501;-79
2023/12/16 15:28:22;;;;;;;;;2.00;2.00;;;;;21.08;32.92;103686.94;5038912;28;45506;-78
2023/12/16 15:30:48;;;;;;;;;4.50;3.75;;;;;21.04;32.52;103704.38;5034468;28;45601;-78
2023/12/16 15:33:13;;;;;;;;;3.50;3.25;;;;;20.87;33.07;103686.94;5051580;28;45152;-76
2023/12/16 15:35:38;;;;;;;;;3.75;3.00;;;;;20.76;32.76;103695.56;5052587;28;45350;-75
2023/12/16 15:38:04;;;;;;;;;3.75;2.50;;;;;20.70;32.99;103702.19;5053514;28;45594;-78
2023/12/16 15:40:32;;;;;;;;;4.00;2.50;;;;;20.68;33.07;103706.81;5056607;28;46649;-78
2023/12/16 15:42:58;;;;;;;;;3.00;3.00;;;;;20.55;33.50;103685.56;5057297;28;46152;-76
2023/12/16 15:45:23;;;;;;;;;3.25;3.25;;;;;20.52;33.30;103702.94;5059239;28;45461;-76
2023/12/16 15:47:49;;;;;;;;;0.75;0.25;;;;;20.51;33.71;103700.25;5058839;28;56461;-75
2023/12/16 15:50:14;;;;;;;;;3.75;3.50;;;;;20.47;33.83;103707.69;5057960;28;46784;-74
2023/12/16 15:52:40;;;;;;;;;5.25;4.00;;;;;20.46;33.96;103700.47;5056919;28;45355;-80
2023/12/16 15:55:05;;;;;;;;;6.00;4.00;;;;;20.48;34.06;103694.97;5057217;28;45391;-76
2023/12/16 15:57:31;;;;;;;;;5.50;4.50;;;;;20.36;33.81;103689.03;5056598;28;45529;-76
2023/12/16 15:59:56;;;;;;;;;3.75;3.75;;;;;20.41;33.94;103697.06;5056642;28;46334;-76
2023/12/16 16:02:23;;;;;;;;;3.00;3.00;;;;;20.43;33.75;103700.59;5056900;28;45367;-77
2023/12/16 16:04:49;;;;;;;;;5.00;3.75;;;;;20.37;33.93;103692.66;5056984;28;45317;-74
2023/12/16 16:07:14;;;;;;;;;5.00;5.00;;;;;20.20;33.73;103671.50;5056213;28;45367;-75
2023/12/16 16:09:40;;;;;;;;;3.00;3.00;;;;;20.27;33.90;103689.38;5056172;28;45514;-75
2023/12/16 16:12:06;;;;;;;;;7.00;7.00;;;;;20.17;34.19;103674.34;5056550;28;45357;-76
2023/12/16 16:14:31;;;;;;;;;16.00;14.50;;;;;20.21;34.64;103688.75;5056251;28;45506;-76
2023/12/16 16:16:56;;;;;;;;;14.75;12.75;;;;;20.22;34.63;103699.59;5057217;28;45486;-76
2023/12/16 16:19:22;;;;;;;;;13.00;12.00;;;;;20.14;34.59;103695.38;5069598;28;46124;-76
2023/12/16 16:21:47;;;;;;;;;19.50;14.75;;;;;20.03;34.84;103693.06;5037722;28;45431;-75